Time;durP1;ratioP1;P1;durP2;ratioP2;P2;SDS_P1;SDS_P2;PMS_P1;PMS_P2;Temp;Humidity;BMP_temperature;BMP_pressure;BME280_temperature;BME280_humidity;BME280_pressure;Samples;Min_cycle;Max_cycle;Signal;HPM_P1;HPM_P2
2022/07/02 00:01:08;;;;;;;3.90;1.40;;;14.90;99.90;;;;;;4980111;28;20038;-71
2022/07/02 00:03:36;;;;;;;4.28;1.40;;;15.00;99.90;;;;;;4980367;28;20122;-71
2022/07/02 00:06:04;;;;;;;5.05;1.50;;;15.00;99.90;;;;;;4980077;28;20050;-71
2022/07/02 00:08:30;;;;;;;3.97;1.50;;;15.00;99.90;;;;;;4996643;28;20046;-71
2022/07/02 00:10:57;;;;;;;4.03;1.50;;;15.10;99.90;;;;;;4980225;28;20053;-71
2022/07/02 00:13:24;;;;;;;4.28;1.48;;;15.00;99.90;;;;;;4979787;28;20117;-71
2022/07/02 00:15:50;;;;;;;5.32;1.50;;;15.10;99.90;;;;;;4979893;28;20528;-71
2022/07/02 00:18:16;;;;;;;3.40;1.48;;;15.00;99.90;;;;;;4979800;28;20035;-72
2022/07/02 00:20:43;;;;;;;3.38;1.48;;;15.00;99.90;;;;;;4979721;28;20034;-72
2022/07/02 00:23:09;;;;;;;5.97;2.08;;;15.00;99.90;;;;;;4995881;28;20491;-72
2022/07/02 00:25:40;;;;;;;6.03;1.70;;;14.90;99.90;;;;;;4995933;28;20046;-72
2022/07/02 00:28:07;;;;;;;3.60;1.63;;;14.80;99.90;;;;;;4979888;28;20061;-71
2022/07/02 00:30:33;;;;;;;3.35;1.60;;;14.70;99.90;;;;;;4979656;28;20046;-71
2022/07/02 00:33:02;;;;;;;6.03;1.77;;;14.70;99.90;;;;;;4979680;28;20106;-72
2022/07/02 00:35:29;;;;;;;4.80;1.52;;;14.70;99.90;;;;;;4980076;28;20038;-72
2022/07/02 00:37:55;;;;;;;5.40;1.80;;;14.60;99.90;;;;;;4979738;28;20073;-72
2022/07/02 00:40:23;;;;;;;6.78;1.98;;;14.50;99.90;;;;;;4979643;28;20038;-72
2022/07/02 00:42:48;;;;;;;3.97;1.63;;;14.40;99.90;;;;;;4979245;28;20561;-72
2022/07/02 00:45:16;;;;;;;6.00;2.10;;;14.30;99.90;;;;;;4979406;28;20042;-72
2022/07/02 00:47:43;;;;;;;6.03;1.83;;;14.30;99.90;;;;;;4979416;28;20415;-72
2022/07/02 00:50:09;;;;;;;5.57;2.00;;;14.20;99.90;;;;;;4995706;28;20066;-72
2022/07/02 00:52:35;;;;;;;5.60;1.92;;;14.10;99.90;;;;;;4962918;28;20039;-72
2022/07/02 00:55:01;;;;;;;5.93;1.95;;;14.10;99.90;;;;;;4979496;28;20043;-72
2022/07/02 00:57:27;;;;;;;7.35;1.95;;;14.10;99.90;;;;;;4979398;28;20038;-72
2022/07/02 00:59:53;;;;;;;6.38;2.20;;;14.10;99.90;;;;;;4963305;28;20415;-72
2022/07/02 01:02:22;;;;;;;3.80;1.90;;;14.10;99.90;;;;;;4978977;28;20053;-72
2022/07/02 01:04:49;;;;;;;5.30;1.67;;;14.20;99.90;;;;;;4979235;28;20078;-72
2022/07/02 01:07:16;;;;;;;8.02;1.70;;;14.20;99.90;;;;;;4979023;28;20057;-72
2022/07/02 01:12:33;;;;;;;2.65;1.35;;;14.30;99.90;;;;;;4978739;28;20042;-71
2022/07/02 01:14:59;;;;;;;4.70;1.33;;;14.20;99.90;;;;;;4995347;28;20042;-71
2022/07/02 01:17:24;;;;;;;4.20;1.60;;;14.10;99.90;;;;;;4979322;28;20444;-72
2022/07/02 01:19:50;;;;;;;4.18;1.98;;;14.10;99.90;;;;;;4996463;28;20486;-72
2022/07/02 01:22:20;;;;;;;5.07;1.70;;;14.10;99.90;;;;;;4978706;28;20507;-72
2022/07/02 01:24:54;;;;;;;5.65;1.90;;;14.20;99.90;;;;;;4979070;28;20089;-72
2022/07/02 01:27:22;;;;;;;5.57;2.13;;;14.20;99.90;;;;;;4978652;28;20054;-72
2022/07/02 01:29:47;;;;;;;5.88;2.20;;;14.20;99.90;;;;;;4995067;28;20129;-72
2022/07/02 01:32:14;;;;;;;4.45;1.63;;;14.20;99.90;;;;;;4962364;28;20523;-72
2022/07/02 01:34:51;;;;;;;3.83;1.90;;;14.20;99.90;;;;;;4962494;28;20074;-72
2022/07/02 01:37:18;;;;;;;9.00;2.33;;;14.30;99.90;;;;;;4994918;28;20565;-72
2022/07/02 01:39:45;;;;;;;5.75;2.25;;;14.30;99.90;;;;;;4995147;28;20514;-72
2022/07/02 01:42:12;;;;;;;5.30;2.10;;;14.40;99.90;;;;;;4978318;28;20043;-72
2022/07/02 01:44:38;;;;;;;5.18;2.03;;;14.40;99.90;;;;;;4978535;28;20034;-72
2022/07/02 01:47:08;;;;;;;5.40;1.95;;;14.40;99.90;;;;;;4978578;28;20049;-72
2022/07/02 01:49:34;;;;;;;4.53;2.10;;;14.40;99.90;;;;;;4962699;28;20488;-71
2022/07/02 01:52:01;;;;;;;5.20;1.88;;;14.30;99.90;;;;;;4978079;28;20376;-71
2022/07/02 01:54:27;;;;;;;6.18;2.10;;;14.20;99.90;;;;;;4994481;28;20038;-71
2022/07/02 01:56:53;;;;;;;3.60;2.13;;;14.10;99.90;;;;;;4978283;28;20034;-71
2022/07/02 01:59:19;;;;;;;8.52;2.42;;;14.10;99.90;;;;;;4978531;28;20377;-72
2022/07/02 02:01:45;;;;;;;5.05;2.38;;;14.00;99.90;;;;;;4978019;28;20092;-72
2022/07/02 02:04:11;;;;;;;5.00;2.60;;;14.00;99.90;;;;;;4977954;28;20058;-71
2022/07/02 02:06:38;;;;;;;5.82;2.63;;;13.90;99.90;;;;;;4978765;28;20054;-72
2022/07/02 02:09:04;;;;;;;11.32;3.13;;;13.90;99.90;;;;;;4977825;28;20042;-72
2022/07/02 02:11:29;;;;;;;4.88;2.30;;;13.80;99.90;;;;;;4977997;28;20042;-72
2022/07/02 02:13:58;;;;;;;6.03;2.40;;;13.80;99.90;;;;;;4977687;28;20049;-72
2022/07/02 02:16:25;;;;;;;6.80;2.47;;;13.70;99.90;;;;;;4977712;28;20121;-72
2022/07/02 02:18:50;;;;;;;7.47;2.70;;;13.70;99.90;;;;;;4961898;28;20495;-72
2022/07/02 02:21:16;;;;;;;6.72;2.60;;;13.70;99.90;;;;;;4977030;28;20030;-72
2022/07/02 02:23:41;;;;;;;5.20;2.30;;;13.70;99.90;;;;;;4977597;28;20129;-72
2022/07/02 02:26:07;;;;;;;5.45;2.85;;;13.70;99.90;;;;;;4977591;28;20054;-72
2022/07/02 02:28:33;;;;;;;7.93;2.55;;;13.70;99.90;;;;;;4977527;28;20049;-72
2022/07/02 02:30:58;;;;;;;4.82;2.80;;;13.60;99.90;;;;;;4977664;28;20085;-72
2022/07/02 02:33:24;;;;;;;3.78;2.42;;;13.60;99.90;;;;;;4977404;28;20411;-72
2022/07/02 02:35:49;;;;;;;6.20;2.80;;;13.50;99.90;;;;;;4977411;28;20069;-72
2022/07/02 02:38:15;;;;;;;6.72;2.97;;;13.60;99.90;;;;;;4977387;28;20038;-72
2022/07/02 02:40:40;;;;;;;6.95;3.03;;;13.60;99.90;;;;;;4994691;28;20042;-72
2022/07/02 02:43:06;;;;;;;8.57;3.15;;;13.50;99.90;;;;;;4961195;28;20042;-72
2022/07/02 02:45:32;;;;;;;7.15;3.10;;;13.50;99.90;;;;;;4977208;28;20125;-72
2022/07/02 02:47:58;;;;;;;5.82;2.83;;;13.50;99.90;;;;;;4961686;28;20133;-72
2022/07/02 02:50:23;;;;;;;9.80;3.03;;;13.50;99.90;;;;;;4977225;28;20451;-72
2022/07/02 02:52:49;;;;;;;6.07;3.10;;;13.40;99.90;;;;;;4977227;28;20085;-72
2022/07/02 02:55:14;;;;;;;8.77;3.00;;;13.40;99.90;;;;;;4977070;28;20491;-72
2022/07/02 02:57:40;;;;;;;7.80;3.30;;;13.40;99.90;;;;;;4977263;28;20038;-72
2022/07/02 03:00:06;;;;;;;7.70;3.28;;;13.30;99.90;;;;;;4960838;28;20038;-72
2022/07/02 03:02:32;;;;;;;5.70;2.92;;;13.40;99.90;;;;;;4977099;28;20042;-72
2022/07/02 03:04:57;;;;;;;8.68;3.42;;;13.50;99.90;;;;;;4976911;28;20096;-72
2022/07/02 03:07:23;;;;;;;7.78;3.10;;;13.50;99.90;;;;;;4976881;28;20077;-72
2022/07/02 03:09:48;;;;;;;10.35;3.30;;;13.60;99.90;;;;;;4976753;28;20041;-72
2022/07/02 03:12:14;;;;;;;6.75;3.20;;;13.70;99.90;;;;;;4976777;28;20042;-72
2022/07/02 03:14:39;;;;;;;8.07;3.53;;;13.70;99.90;;;;;;4960713;28;20116;-72
2022/07/02 03:17:05;;;;;;;6.85;3.30;;;13.80;99.90;;;;;;4976720;28;20054;-72
2022/07/02 03:19:31;;;;;;;6.35;3.20;;;13.80;99.90;;;;;;4976672;28;20057;-72
2022/07/02 03:21:56;;;;;;;10.32;4.10;;;13.90;99.90;;;;;;4976594;28;20129;-72
2022/07/02 03:24:22;;;;;;;8.98;3.25;;;13.90;99.90;;;;;;4976660;28;20042;-72
2022/07/02 03:26:48;;;;;;;7.93;3.45;;;14.00;99.90;;;;;;4960522;28;20431;-72
2022/07/02 03:29:14;;;;;;;8.48;3.40;;;13.90;99.90;;;;;;4977583;28;20053;-72
2022/07/02 03:31:39;;;;;;;5.60;3.00;;;13.90;99.90;;;;;;4975876;28;20038;-72
2022/07/02 03:34:05;;;;;;;8.57;4.15;;;13.90;99.90;;;;;;4977078;28;20077;-72
2022/07/02 03:36:30;;;;;;;7.72;3.40;;;13.90;99.90;;;;;;4976647;28;20491;-72
2022/07/02 03:38:56;;;;;;;6.93;3.65;;;13.90;99.90;;;;;;4976461;28;20065;-72
2022/07/02 03:41:22;;;;;;;6.15;3.60;;;13.90;99.90;;;;;;4976311;28;20041;-72
2022/07/02 03:43:50;;;;;;;8.40;4.00;;;13.90;99.90;;;;;;4976880;28;20085;-72
2022/07/02 03:46:16;;;;;;;7.03;3.45;;;14.00;99.90;;;;;;4976459;28;20054;-72
2022/07/02 03:48:42;;;;;;;8.63;4.15;;;13.90;99.90;;;;;;4976256;28;20053;-72
2022/07/02 03:51:08;;;;;;;13.70;4.35;;;13.90;99.90;;;;;;4976026;28;20054;-72
2022/07/02 03:53:33;;;;;;;7.45;3.70;;;13.80;99.90;;;;;;4976373;28;20050;-72
2022/07/02 03:55:59;;;;;;;8.68;3.67;;;13.80;99.90;;;;;;4976466;28;20499;-72
2022/07/02 03:58:25;;;;;;;10.10;3.97;;;13.70;99.90;;;;;;4976449;28;20093;-72
2022/07/02 04:00:50;;;;;;;9.05;3.83;;;13.70;99.90;;;;;;4960078;28;20118;-72
2022/07/02 04:03:16;;;;;;;5.63;3.95;;;13.60;99.90;;;;;;4976399;28;20136;-72
2022/07/02 04:05:41;;;;;;;6.88;3.75;;;13.70;99.90;;;;;;4960637;28;20050;-72
2022/07/02 04:08:07;;;;;;;6.93;3.95;;;13.70;99.90;;;;;;4976169;28;20057;-72
2022/07/02 04:10:32;;;;;;;8.43;3.75;;;13.70;99.90;;;;;;4993558;28;20038;-71
2022/07/02 04:12:58;;;;;;;9.43;4.85;;;13.70;99.90;;;;;;4960138;28;20085;-71
2022/07/02 04:15:24;;;;;;;11.57;3.85;;;13.70;99.90;;;;;;4976370;28;20549;-71
2022/07/02 04:17:49;;;;;;;6.80;3.70;;;13.90;99.90;;;;;;4976367;28;20483;-71
2022/07/02 04:20:15;;;;;;;9.30;4.20;;;13.90;99.90;;;;;;4960032;28;20042;-71
2022/07/02 04:22:40;;;;;;;7.43;4.03;;;13.90;99.90;;;;;;4976232;28;20045;-72
2022/07/02 04:25:07;;;;;;;8.35;4.38;;;14.00;99.90;;;;;;4976276;28;20077;-72
2022/07/02 04:27:32;;;;;;;6.65;4.03;;;14.00;99.90;;;;;;4976212;28;20038;-72
2022/07/02 04:29:58;;;;;;;8.07;4.38;;;14.00;99.90;;;;;;4976146;28;20049;-72
2022/07/02 04:32:23;;;;;;;6.28;3.97;;;14.00;99.90;;;;;;4976119;28;20488;-72
2022/07/02 04:34:49;;;;;;;9.45;4.63;;;14.10;99.90;;;;;;4959732;28;20411;-72
2022/07/02 04:37:14;;;;;;;8.57;5.30;;;14.10;99.90;;;;;;4976079;28;20121;-72
2022/07/02 04:39:40;;;;;;;7.60;4.40;;;14.10;99.90;;;;;;4975862;28;20042;-72
2022/07/02 04:42:06;;;;;;;7.80;4.53;;;14.10;99.90;;;;;;4975867;28;20038;-72
2022/07/02 04:44:32;;;;;;;11.07;5.18;;;14.10;99.90;;;;;;4978366;28;20045;-72
2022/07/02 04:46:58;;;;;;;7.50;4.60;;;14.10;99.90;;;;;;4995612;28;20050;-72
2022/07/02 04:49:24;;;;;;;10.57;5.10;;;14.20;99.90;;;;;;4963292;28;20438;-72
2022/07/02 04:51:50;;;;;;;10.13;5.18;;;14.20;99.90;;;;;;4979354;28;20054;-72
2022/07/02 04:54:15;;;;;;;8.68;5.10;;;14.20;99.90;;;;;;4979183;28;20053;-72
2022/07/02 04:56:41;;;;;;;8.30;4.50;;;14.30;99.90;;;;;;4963301;28;20053;-72
2022/07/02 04:59:06;;;;;;;8.63;4.50;;;14.30;99.90;;;;;;4979205;28;20042;-72
2022/07/02 05:01:32;;;;;;;8.60;4.30;;;14.40;99.90;;;;;;4979141;28;20035;-72
2022/07/02 05:03:58;;;;;;;9.30;4.50;;;14.40;99.90;;;;;;4979143;28;20073;-72
2022/07/02 05:06:23;;;;;;;9.00;4.57;;;14.50;99.90;;;;;;4979127;28;20129;-72
2022/07/02 05:08:50;;;;;;;9.48;4.72;;;14.50;99.90;;;;;;4978905;28;20042;-72
2022/07/02 05:11:19;;;;;;;10.82;4.60;;;14.60;99.90;;;;;;4995374;28;20570;-72
2022/07/02 05:13:46;;;;;;;7.82;4.30;;;14.60;99.90;;;;;;4978934;28;20093;-72
2022/07/02 05:16:12;;;;;;;8.98;3.97;;;14.60;99.90;;;;;;4978841;28;20042;-72
2022/07/02 05:18:37;;;;;;;8.55;4.38;;;14.60;99.90;;;;;;4979409;28;20138;-72
2022/07/02 05:21:04;;;;;;;9.10;4.10;;;14.70;99.90;;;;;;4995172;28;20510;-71
2022/07/02 05:23:29;;;;;;;7.80;3.72;;;14.70;99.90;;;;;;4979193;28;20046;-71
2022/07/02 05:25:55;;;;;;;10.05;5.20;;;14.80;99.90;;;;;;4962916;28;20042;-71
2022/07/02 05:28:21;;;;;;;5.75;3.88;;;14.90;99.90;;;;;;4978946;28;20404;-71
2022/07/02 05:30:47;;;;;;;9.82;4.93;;;14.90;99.90;;;;;;4978913;28;20399;-71
2022/07/02 05:33:12;;;;;;;9.68;4.47;;;15.00;99.90;;;;;;4978425;28;20384;-71
2022/07/02 05:35:38;;;;;;;8.32;4.18;;;15.10;99.90;;;;;;4978606;28;20034;-71
2022/07/02 05:38:03;;;;;;;9.40;3.80;;;15.10;99.90;;;;;;4978501;28;20038;-71
2022/07/02 05:40:30;;;;;;;9.15;3.60;;;15.20;99.90;;;;;;4978751;28;20030;-71
2022/07/02 05:42:55;;;;;;;7.10;3.70;;;15.30;99.90;;;;;;4962291;28;20042;-71
2022/07/02 05:45:21;;;;;;;9.40;3.83;;;15.30;99.90;;;;;;4978326;28;20043;-71
2022/07/02 05:47:46;;;;;;;9.50;3.60;;;15.30;99.90;;;;;;4978880;28;20077;-70
2022/07/02 05:50:12;;;;;;;6.38;3.50;;;15.40;99.90;;;;;;4978516;28;20495;-71
2022/07/02 05:52:38;;;;;;;7.72;3.30;;;15.40;99.90;;;;;;4978213;28;20042;-71
2022/07/02 05:55:04;;;;;;;10.18;3.90;;;15.60;99.90;;;;;;4977189;28;20049;-70
2022/07/02 05:57:30;;;;;;;7.55;3.22;;;15.60;99.90;;;;;;4978151;28;20049;-71
2022/07/02 05:59:56;;;;;;;6.47;3.38;;;15.70;99.90;;;;;;4978262;28;20085;-70
2022/07/02 06:02:23;;;;;;;5.57;3.20;;;15.70;99.90;;;;;;4978006;28;20038;-71
2022/07/02 06:04:48;;;;;;;9.55;3.70;;;15.80;99.90;;;;;;4978301;28;20411;-71
2022/07/02 06:09:58;;;;;;;6.45;2.97;;;15.90;99.90;;;;;;4978173;28;20046;-70
2022/07/02 06:12:24;;;;;;;5.75;2.72;;;15.90;99.90;;;;;;4977660;28;20459;-71
2022/07/02 06:14:50;;;;;;;6.18;2.80;;;16.00;99.90;;;;;;4977678;28;20072;-71
2022/07/02 06:17:15;;;;;;;6.60;2.90;;;16.10;99.90;;;;;;4978001;28;20049;-71
2022/07/02 06:19:44;;;;;;;4.97;2.35;;;16.10;99.90;;;;;;4977543;28;20045;-71
2022/07/02 06:22:12;;;;;;;6.32;2.60;;;16.10;99.90;;;;;;4977752;28;20388;-71
2022/07/02 06:24:37;;;;;;;8.23;2.35;;;16.20;99.90;;;;;;4977584;28;20561;-71
2022/07/02 06:27:03;;;;;;;8.02;2.25;;;16.20;99.90;;;;;;4977823;28;20132;-71
2022/07/02 06:29:29;;;;;;;5.00;1.85;;;16.30;99.90;;;;;;4977545;28;20150;-71
2022/07/02 06:31:54;;;;;;;6.97;2.22;;;16.40;99.90;;;;;;4961495;28;20046;-71
2022/07/02 06:34:20;;;;;;;6.47;2.33;;;16.40;99.90;;;;;;4977645;28;20097;-71
2022/07/02 06:36:46;;;;;;;6.10;1.73;;;16.50;99.90;;;;;;4961874;28;20054;-71
2022/07/02 06:39:12;;;;;;;4.50;1.73;;;16.50;99.90;;;;;;4977395;28;20046;-71
2022/07/02 06:44:21;;;;;;;5.35;1.90;;;16.60;99.90;;;;;;4977708;28;20395;-71
2022/07/02 06:46:47;;;;;;;5.55;1.90;;;16.70;99.90;;;;;;4961159;28;20622;-70
2022/07/02 06:49:12;;;;;;;3.90;1.58;;;16.80;99.90;;;;;;4977398;28;20039;-71
2022/07/02 06:51:38;;;;;;;7.82;1.73;;;16.90;99.90;;;;;;4977268;28;20050;-71
2022/07/02 06:54:04;;;;;;;7.53;1.63;;;17.00;99.90;;;;;;4977055;28;20042;-71
2022/07/02 06:56:35;;;;;;;4.13;1.25;;;17.10;99.90;;;;;;4977369;28;20050;-71
2022/07/02 06:59:01;;;;;;;3.65;1.33;;;17.10;99.90;;;;;;4977259;28;20434;-71
2022/07/02 07:01:26;;;;;;;4.20;1.30;;;17.20;99.90;;;;;;4960797;28;20093;-71
2022/07/02 07:03:52;;;;;;;8.20;1.60;;;17.30;99.90;;;;;;4977106;28;20078;-70
2022/07/02 07:06:25;;;;;;;5.65;1.58;;;17.40;99.90;;;;;;4976717;28;20511;-70
2022/07/02 07:08:52;;;;;;;5.03;1.23;;;17.50;99.90;;;;;;4977106;28;20561;-70
2022/07/02 07:11:20;;;;;;;3.72;1.30;;;17.50;99.90;;;;;;4977616;28;20126;-71
2022/07/02 07:13:46;;;;;;;5.60;1.33;;;17.60;99.90;;;;;;4976884;28;20081;-71
2022/07/02 07:16:12;;;;;;;3.58;1.27;;;17.70;99.90;;;;;;4993146;28;20046;-71
2022/07/02 07:18:38;;;;;;;8.95;1.90;;;17.80;99.90;;;;;;4976907;28;20129;-71
2022/07/02 07:21:04;;;;;;;3.03;1.17;;;17.80;99.90;;;;;;4976659;28;20157;-72
2022/07/02 07:23:31;;;;;;;6.80;1.42;;;18.00;99.90;;;;;;4960686;28;20077;-73
2022/07/02 07:25:57;;;;;;;5.50;1.48;;;18.00;99.90;;;;;;4976579;28;20050;-72
2022/07/02 07:28:26;;;;;;;6.72;1.48;;;18.10;99.90;;;;;;4992909;28;20092;-71
2022/07/02 07:30:55;;;;;;;5.60;1.40;;;18.20;99.90;;;;;;4960852;28;20050;-71
2022/07/02 07:33:21;;;;;;;3.50;1.50;;;18.30;99.90;;;;;;4960289;28;20047;-71
2022/07/02 07:35:46;;;;;;;4.25;0.95;;;18.30;99.90;;;;;;4976493;28;20057;-72
2022/07/02 07:38:12;;;;;;;3.55;1.20;;;18.40;99.90;;;;;;4976703;28;20049;-72
2022/07/02 07:40:38;;;;;;;5.72;1.45;;;18.40;99.90;;;;;;4976496;28;20443;-72
2022/07/02 07:43:03;;;;;;;5.63;1.35;;;18.50;99.90;;;;;;4976667;28;20053;-72
2022/07/02 07:45:30;;;;;;;5.07;1.30;;;18.60;99.90;;;;;;4976422;28;20042;-72
2022/07/02 07:47:56;;;;;;;3.78;0.98;;;18.70;99.90;;;;;;4976248;28;20462;-72
2022/07/02 07:50:22;;;;;;;4.13;1.10;;;18.80;99.90;;;;;;4992713;28;20038;-72
2022/07/02 07:52:48;;;;;;;3.38;1.10;;;18.90;99.90;;;;;;4976651;28;20088;-72
2022/07/02 07:55:14;;;;;;;5.00;1.00;;;18.90;99.90;;;;;;4976208;28;20042;-72
2022/07/02 07:57:40;;;;;;;3.38;1.30;;;19.00;99.90;;;;;;4976243;28;20053;-72
2022/07/02 08:00:07;;;;;;;3.60;0.80;;;19.20;99.90;;;;;;4976779;28;20069;-72
2022/07/02 08:02:32;;;;;;;2.30;0.73;;;19.30;99.90;;;;;;4976125;28;20622;-73
2022/07/02 08:04:58;;;;;;;5.55;1.13;;;19.40;99.90;;;;;;4976391;28;20119;-72
2022/07/02 08:07:24;;;;;;;4.85;0.68;;;19.40;99.90;;;;;;4960379;28;20120;-72
2022/07/02 08:09:54;;;;;;;3.42;0.73;;;19.50;99.90;;;;;;4976110;28;20507;-72
2022/07/02 08:12:23;;;;;;;4.72;0.75;;;19.60;99.90;;;;;;4976066;28;20046;-72
2022/07/02 08:14:50;;;;;;;2.80;0.47;;;19.70;99.90;;;;;;4976278;28;20050;-73
2022/07/02 08:17:15;;;;;;;2.28;0.40;;;19.80;99.90;;;;;;4992211;28;20039;-72
2022/07/02 08:19:41;;;;;;;2.55;0.50;;;19.90;99.90;;;;;;4978970;28;20049;-72
2022/07/02 08:22:07;;;;;;;2.72;0.70;;;20.00;99.90;;;;;;4979817;28;20407;-72
2022/07/02 08:24:33;;;;;;;2.72;0.47;;;20.10;99.90;;;;;;4979884;28;20085;-72
2022/07/02 08:26:58;;;;;;;5.70;0.50;;;20.20;99.90;;;;;;4980055;28;20101;-72
2022/07/02 08:29:24;;;;;;;1.88;0.50;;;20.20;99.90;;;;;;4979977;28;20454;-72
2022/07/02 08:31:50;;;;;;;3.42;0.65;;;20.30;99.90;;;;;;4979593;28;20081;-72
2022/07/02 08:34:15;;;;;;;2.38;0.80;;;20.50;99.90;;;;;;4963443;28;20109;-72
2022/07/02 08:36:41;;;;;;;1.80;0.60;;;20.60;99.90;;;;;;4979518;28;20150;-72
2022/07/02 08:39:06;;;;;;;2.95;0.50;;;20.80;99.90;;;;;;4964039;28;20034;-72
2022/07/02 08:41:32;;;;;;;3.83;0.57;;;20.90;99.90;;;;;;4979522;28;20046;-72
2022/07/02 08:44:01;;;;;;;3.08;0.50;;;21.00;99.90;;;;;;4979777;28;20053;-72
2022/07/02 08:46:28;;;;;;;2.25;0.60;;;21.20;99.90;;;;;;4979492;28;20042;-72
2022/07/02 08:48:57;;;;;;;2.42;0.47;;;21.20;97.80;;;;;;4997074;28;20038;-72
2022/07/02 08:51:23;;;;;;;2.45;0.35;;;21.30;96.90;;;;;;4979672;28;20058;-72
2022/07/02 08:53:49;;;;;;;2.08;0.32;;;21.40;95.90;;;;;;4979336;28;20042;-72
2022/07/02 08:56:15;;;;;;;2.63;0.50;;;21.50;94.20;;;;;;4979291;28;20169;-72
2022/07/02 08:58:41;;;;;;;2.45;0.50;;;21.50;92.70;;;;;;4979374;28;20042;-72
2022/07/02 09:01:09;;;;;;;2.13;0.43;;;21.60;92.00;;;;;;4979319;28;20046;-72
2022/07/02 09:03:37;;;;;;;2.10;0.80;;;21.70;92.00;;;;;;4979323;28;20046;-72
2022/07/02 09:06:05;;;;;;;3.50;0.40;;;21.80;92.40;;;;;;4979123;28;20117;-72
2022/07/02 09:08:31;;;;;;;2.03;0.30;;;22.00;92.10;;;;;;4979294;28;20092;-72
2022/07/02 09:10:58;;;;;;;1.02;0.30;;;22.00;85.70;;;;;;4996337;28;20443;-72
2022/07/02 09:13:24;;;;;;;1.65;0.52;;;22.10;84.80;;;;;;4979075;28;20510;-72
2022/07/02 09:15:52;;;;;;;2.92;0.60;;;22.10;85.00;;;;;;4979230;28;20129;-72
2022/07/02 09:18:18;;;;;;;2.45;0.20;;;22.20;83.90;;;;;;4978912;28;20093;-72
2022/07/02 09:20:44;;;;;;;0.70;0.13;;;22.40;87.80;;;;;;4979003;28;20050;-72
2022/07/02 09:23:20;;;;;;;1.77;0.20;;;22.40;73.80;;;;;;4978788;28;20049;-72
2022/07/02 09:25:50;;;;;;;1.23;0.20;;;22.50;69.70;;;;;;4978831;28;20049;-72
2022/07/02 09:28:16;;;;;;;0.20;0.10;;;22.50;69.10;;;;;;4978739;28;20046;-72
2022/07/02 09:30:43;;;;;;;2.00;0.15;;;22.60;69.10;;;;;;4994950;28;20411;-72
2022/07/02 09:33:31;;;;;;;1.40;0.30;;;22.60;65.10;;;;;;4978427;28;20046;-72
2022/07/02 09:36:07;;;;;;;2.15;0.35;;;22.70;65.40;;;;;;4978614;28;20038;-72
2022/07/02 09:38:41;;;;;;;1.40;0.30;;;22.80;65.80;;;;;;4978481;28;20518;-72
2022/07/02 09:41:11;;;;;;;2.10;0.38;;;23.00;64.10;;;;;;4994656;28;20425;-72
2022/07/02 09:43:38;;;;;;;0.68;0.20;;;23.00;63.10;;;;;;4978733;28;20129;-72
2022/07/02 09:46:17;;;;;;;1.15;0.30;;;23.00;64.80;;;;;;4978633;28;20065;-72
2022/07/02 09:48:44;;;;;;;2.60;0.25;;;23.10;68.10;;;;;;4962259;28;20495;-72
2022/07/02 09:51:09;;;;;;;0.45;0.10;;;23.00;63.50;;;;;;4978505;28;20049;-72
2022/07/02 09:53:45;;;;;;;1.35;0.30;;;23.10;60.10;;;;;;4978194;28;20460;-73
2022/07/02 09:56:11;;;;;;;1.63;0.40;;;23.20;60.60;;;;;;4978531;28;20066;-73
2022/07/02 09:58:36;;;;;;;0.93;0.40;;;23.20;62.20;;;;;;4978170;28;20491;-73
2022/07/02 10:01:03;;;;;;;1.80;0.30;;;23.30;61.50;;;;;;4978310;28;20121;-71
2022/07/02 10:03:29;;;;;;;1.55;0.73;;;23.30;61.20;;;;;;4978387;28;20060;-71
2022/07/02 10:05:54;;;;;;;4.57;0.43;;;23.40;61.70;;;;;;4978168;28;20050;-72
2022/07/02 10:08:21;;;;;;;0.95;0.30;;;23.50;63.20;;;;;;4977937;28;20038;-72
2022/07/02 10:10:47;;;;;;;1.77;0.30;;;23.50;63.60;;;;;;4977935;28;20384;-72
2022/07/02 10:13:14;;;;;;;2.88;0.40;;;23.60;63.30;;;;;;4994115;28;20480;-72
2022/07/02 10:15:53;;;;;;;2.15;0.30;;;23.70;63.20;;;;;;4977992;28;20393;-73
2022/07/02 10:18:20;;;;;;;1.55;0.30;;;23.70;60.60;;;;;;4978343;28;20384;-73
2022/07/02 10:20:46;;;;;;;0.77;0.32;;;23.70;62.80;;;;;;4977973;28;20092;-73
2022/07/02 10:23:14;;;;;;;2.25;0.30;;;23.80;60.60;;;;;;4977888;28;20074;-73
2022/07/02 10:25:40;;;;;;;1.92;0.30;;;24.00;58.70;;;;;;4977625;28;20042;-73
2022/07/02 10:28:05;;;;;;;2.35;0.43;;;24.00;60.60;;;;;;4961861;28;20042;-73
2022/07/02 10:30:32;;;;;;;1.25;0.20;;;23.80;58.70;;;;;;4977637;28;20569;-73
2022/07/02 10:33:23;;;;;;;2.40;0.50;;;24.00;58.90;;;;;;4961574;28;20038;-73
2022/07/02 10:35:50;;;;;;;1.17;0.40;;;24.20;59.80;;;;;;4977473;28;20046;-73
2022/07/02 10:38:30;;;;;;;1.75;0.30;;;24.30;57.40;;;;;;4977835;28;20061;-73
2022/07/02 10:40:56;;;;;;;2.03;0.40;;;24.50;58.20;;;;;;4977241;28;20052;-73
2022/07/02 10:43:22;;;;;;;4.80;0.50;;;24.60;57.30;;;;;;4993763;28;20509;-73
2022/07/02 10:45:48;;;;;;;1.42;0.20;;;24.80;58.10;;;;;;4977529;28;20047;-73
2022/07/02 10:48:14;;;;;;;1.67;0.30;;;25.00;57.10;;;;;;4961191;28;20038;-73
2022/07/02 10:50:47;;;;;;;4.07;0.43;;;25.00;56.10;;;;;;4977110;28;20168;-73
2022/07/02 10:53:17;;;;;;;2.58;0.45;;;25.00;54.10;;;;;;4960942;28;20034;-72
2022/07/02 10:56:03;;;;;;;3.55;0.40;;;25.10;56.40;;;;;;4961232;28;20054;-72
2022/07/02 10:58:31;;;;;;;0.93;0.30;;;25.30;55.50;;;;;;4977539;28;20065;-72
2022/07/02 11:01:15;;;;;;;3.92;0.70;;;25.20;53.60;;;;;;4977005;28;20121;-72
2022/07/02 11:03:57;;;;;;;1.33;0.20;;;25.00;54.70;;;;;;4976999;28;20058;-72
2022/07/02 11:06:27;;;;;;;1.10;0.30;;;25.00;54.30;;;;;;4977193;28;20038;-72
2022/07/02 11:08:55;;;;;;;2.42;0.50;;;24.90;53.10;;;;;;4993406;28;20100;-72
2022/07/02 11:11:36;;;;;;;1.95;0.40;;;25.10;53.30;;;;;;4976768;28;20419;-72
2022/07/02 11:14:29;;;;;;;1.23;0.32;;;25.30;53.90;;;;;;4976732;28;20435;-72
2022/07/02 11:16:56;;;;;;;3.03;0.30;;;25.50;52.60;;;;;;4991132;28;20051;-72
2022/07/02 11:19:24;;;;;;;5.30;0.60;;;25.50;53.60;;;;;;4976751;28;20061;-72
2022/07/02 11:21:53;;;;;;;3.50;0.30;;;25.40;52.40;;;;;;4976623;28;20498;-72
2022/07/02 11:24:22;;;;;;;4.95;0.68;;;25.40;53.30;;;;;;4976551;28;20053;-73
2022/07/02 11:26:48;;;;;;;2.90;0.50;;;25.50;53.50;;;;;;4960497;28;20450;-73
2022/07/02 11:29:15;;;;;;;1.77;0.40;;;25.70;53.40;;;;;;4960518;28;20410;-73
2022/07/02 11:31:42;;;;;;;1.48;0.47;;;26.00;52.50;;;;;;4992905;28;20060;-73
2022/07/02 11:34:08;;;;;;;2.03;0.40;;;26.20;53.20;;;;;;4976463;28;20034;-72
2022/07/02 11:36:37;;;;;;;0.90;0.20;;;26.50;52.50;;;;;;4976803;28;20046;-72
2022/07/02 11:39:09;;;;;;;1.75;0.25;;;26.60;50.60;;;;;;4976431;28;20125;-71
2022/07/02 11:41:35;;;;;;;1.90;0.63;;;26.50;50.30;;;;;;4977010;28;20050;-72
2022/07/02 11:44:12;;;;;;;1.75;0.43;;;26.20;50.70;;;;;;4976633;28;20069;-72
2022/07/02 11:46:38;;;;;;;3.03;0.50;;;26.30;52.10;;;;;;4977178;28;20046;-72
2022/07/02 11:49:14;;;;;;;1.85;0.50;;;26.30;52.90;;;;;;4976324;28;20050;-73
2022/07/02 11:51:39;;;;;;;4.10;0.73;;;26.20;52.50;;;;;;4993999;28;20034;-73
2022/07/02 11:54:07;;;;;;;3.75;0.65;;;25.90;52.20;;;;;;4975572;28;20464;-73
2022/07/02 11:56:40;;;;;;;2.47;0.50;;;25.60;53.30;;;;;;4993654;28;20077;-73
2022/07/02 11:59:10;;;;;;;1.73;0.40;;;25.40;53.10;;;;;;4976270;28;20045;-72
2022/07/02 12:01:37;;;;;;;2.47;0.50;;;25.30;54.30;;;;;;4976040;28;20077;-72
2022/07/02 12:04:05;;;;;;;3.90;0.43;;;25.10;54.40;;;;;;4976097;28;20053;-72
2022/07/02 12:06:34;;;;;;;2.67;0.40;;;25.10;55.60;;;;;;4976338;28;20076;-72
2022/07/02 12:09:01;;;;;;;3.38;0.47;;;25.40;56.40;;;;;;4992670;28;20442;-72
2022/07/02 12:11:27;;;;;;;1.98;0.47;;;25.70;55.90;;;;;;4976026;28;20514;-72
2022/07/02 12:13:54;;;;;;;1.67;0.50;;;26.10;56.10;;;;;;4976079;28;20043;-72
2022/07/02 12:16:27;;;;;;;2.83;0.40;;;26.30;53.40;;;;;;4976114;28;20046;-72
2022/07/02 12:19:10;;;;;;;1.73;0.47;;;26.20;53.60;;;;;;4976164;28;20046;-72
2022/07/02 12:21:41;;;;;;;2.53;0.55;;;26.20;52.50;;;;;;4976307;28;20104;-72
2022/07/02 12:24:27;;;;;;;1.33;0.45;;;26.00;52.50;;;;;;4976320;28;20046;-72
2022/07/02 12:26:56;;;;;;;3.20;0.50;;;25.90;53.30;;;;;;4976200;28;20046;-72
2022/07/02 12:29:53;;;;;;;1.55;0.40;;;25.80;53.50;;;;;;4975988;28;20053;-72
2022/07/02 12:32:24;;;;;;;2.72;0.68;;;25.60;53.10;;;;;;4976096;28;20129;-72
2022/07/02 12:34:55;;;;;;;0.95;0.30;;;25.50;54.50;;;;;;4959983;28;20043;-73
2022/07/02 12:37:35;;;;;;;3.22;0.63;;;25.70;55.00;;;;;;4975867;28;20078;-73
2022/07/02 12:40:12;;;;;;;2.33;0.55;;;26.10;55.80;;;;;;4976133;28;20042;-73
2022/07/02 12:43:01;;;;;;;1.65;0.40;;;26.20;52.10;;;;;;4992334;28;20042;-73
2022/07/02 12:45:29;;;;;;;4.25;0.70;;;26.10;53.80;;;;;;4976119;28;20038;-73
2022/07/02 12:48:04;;;;;;;2.28;0.50;;;26.00;53.90;;;;;;4975804;28;20046;-73
2022/07/02 12:50:32;;;;;;;3.42;0.45;;;25.80;53.50;;;;;;4992296;28;20054;-71
2022/07/02 12:53:03;;;;;;;4.95;0.85;;;25.80;54.40;;;;;;4975527;28;20094;-72
2022/07/02 12:55:30;;;;;;;8.88;0.80;;;25.80;54.60;;;;;;4975803;28;20043;-72